Time;durP1;ratioP1;P1;durP2;ratioP2;P2;SDS_P1;SDS_P2;PMS_P1;PMS_P2;Temp;Humidity;BMP_temperature;BMP_pressure;BME280_temperature;BME280_humidity;BME280_pressure;Samples;Min_cycle;Max_cycle;Signal;HPM_P1;HPM_P2
2020/12/31 00:00:47;;;;;;;9.70;7.85;;;2.60;99.40;;;;;;4989048;28;20206;-81
2020/12/31 00:03:13;;;;;;;7.63;6.10;;;2.50;99.40;;;;;;4994587;28;20205;-80
2020/12/31 00:05:39;;;;;;;8.55;6.78;;;2.60;99.40;;;;;;4996667;28;20209;-80
2020/12/31 00:08:06;;;;;;;9.68;6.32;;;2.60;99.40;;;;;;4993276;28;20653;-80
2020/12/31 00:10:34;;;;;;;9.45;7.20;;;2.60;99.40;;;;;;4995604;28;20229;-79
2020/12/31 00:13:00;;;;;;;9.68;6.60;;;2.60;99.40;;;;;;4994378;28;20221;-82
2020/12/31 00:15:27;;;;;;;9.20;6.72;;;2.50;99.10;;;;;;4993070;28;20361;-81
2020/12/31 00:17:53;;;;;;;8.70;6.50;;;2.60;99.20;;;;;;4991560;28;20228;-82
2020/12/31 00:20:20;;;;;;;9.48;7.00;;;2.60;99.10;;;;;;4991037;28;20315;-83
2020/12/31 00:22:46;;;;;;;10.55;6.38;;;2.60;99.00;;;;;;4992718;28;20521;-82
2020/12/31 00:25:13;;;;;;;8.75;6.60;;;2.60;98.80;;;;;;4993558;28;20206;-81
2020/12/31 00:27:40;;;;;;;8.02;6.78;;;2.60;98.70;;;;;;4990795;28;20237;-81
2020/12/31 00:30:08;;;;;;;10.15;6.60;;;2.60;98.70;;;;;;4994055;28;20316;-85
2020/12/31 00:32:35;;;;;;;9.00;6.40;;;2.60;98.60;;;;;;4997277;28;20325;-85
2020/12/31 00:35:01;;;;;;;9.68;6.15;;;2.60;98.60;;;;;;4996915;28;20551;-83
2020/12/31 00:37:35;;;;;;;8.45;7.28;;;2.60;98.60;;;;;;4997255;28;20193;-84
2020/12/31 00:40:24;;;;;;;9.15;6.65;;;2.70;98.60;;;;;;4997579;28;20213;-83
2020/12/31 00:42:51;;;;;;;8.63;5.97;;;2.70;98.40;;;;;;4991517;28;20217;-83
2020/12/31 00:45:21;;;;;;;9.02;6.43;;;2.70;98.10;;;;;;4992631;28;20216;-83
2020/12/31 00:47:47;;;;;;;9.50;6.00;;;2.70;98.00;;;;;;4994140;28;20212;-85
2020/12/31 00:50:14;;;;;;;8.45;6.18;;;2.70;97.80;;;;;;4995580;28;20301;-81
2020/12/31 00:52:40;;;;;;;7.90;6.28;;;2.80;97.80;;;;;;4995988;28;20246;-81
2020/12/31 00:55:14;;;;;;;8.40;6.50;;;2.80;97.50;;;;;;4995211;28;20205;-81
2020/12/31 00:57:40;;;;;;;9.20;6.30;;;2.90;97.20;;;;;;4992083;28;20186;-83
2020/12/31 01:00:09;;;;;;;6.50;5.25;;;2.90;96.70;;;;;;4990253;28;20221;-83
2020/12/31 01:02:36;;;;;;;10.05;5.90;;;2.80;96.10;;;;;;4991353;28;20213;-83
2020/12/31 01:05:08;;;;;;;7.65;5.75;;;2.80;96.10;;;;;;4991208;28;20210;-85
2020/12/31 01:07:36;;;;;;;9.07;6.35;;;2.80;96.10;;;;;;4994334;28;20237;-83
2020/12/31 01:10:05;;;;;;;7.13;6.05;;;2.80;96.10;;;;;;4996627;28;20284;-82
2020/12/31 01:12:32;;;;;;;10.82;6.57;;;2.80;96.00;;;;;;4995764;28;20201;-81
2020/12/31 01:15:01;;;;;;;8.07;6.47;;;2.70;95.30;;;;;;4992834;28;20265;-83
2020/12/31 01:17:28;;;;;;;10.70;6.72;;;2.60;95.00;;;;;;4994796;28;20264;-80
2020/12/31 01:20:04;;;;;;;10.15;6.28;;;2.50;94.60;;;;;;4995400;28;20225;-81
2020/12/31 01:22:31;;;;;;;8.07;5.85;;;2.40;94.70;;;;;;4995366;28;20185;-81
2020/12/31 01:24:57;;;;;;;8.65;6.60;;;2.30;94.60;;;;;;4995252;28;20221;-81
2020/12/31 01:27:24;;;;;;;10.13;7.22;;;2.30;94.80;;;;;;4986197;28;20212;-82
2020/12/31 01:29:50;;;;;;;10.35;7.25;;;2.20;94.80;;;;;;4986486;28;20232;-81
2020/12/31 01:32:20;;;;;;;9.30;6.53;;;2.20;95.00;;;;;;4986872;28;20233;-82
2020/12/31 01:34:48;;;;;;;8.82;7.50;;;2.10;95.10;;;;;;4983388;28;20218;-83
2020/12/31 01:37:16;;;;;;;8.52;7.25;;;2.10;95.40;;;;;;4987498;28;20208;-83
2020/12/31 01:39:43;;;;;;;10.02;8.15;;;2.00;95.70;;;;;;4990867;28;20280;-80
2020/12/31 01:42:09;;;;;;;10.30;7.93;;;2.10;95.80;;;;;;4996560;28;20197;-81
2020/12/31 01:44:35;;;;;;;10.70;7.80;;;2.00;95.80;;;;;;4996286;28;20204;-81
2020/12/31 01:47:02;;;;;;;10.30;8.10;;;2.00;96.40;;;;;;4986174;28;20201;-81
2020/12/31 01:49:31;;;;;;;10.98;7.90;;;1.90;96.20;;;;;;4977914;28;20316;-83
2020/12/31 01:52:00;;;;;;;10.57;7.65;;;1.90;96.70;;;;;;4977227;28;20316;-82
2020/12/31 01:54:28;;;;;;;12.02;8.38;;;1.90;97.10;;;;;;4982670;28;20209;-82
2020/12/31 01:56:56;;;;;;;11.15;7.95;;;1.80;97.30;;;;;;4983820;28;20273;-81
2020/12/31 01:59:23;;;;;;;12.20;8.10;;;1.80;97.40;;;;;;4982983;28;20217;-81
2020/12/31 02:01:50;;;;;;;11.90;8.13;;;1.80;97.60;;;;;;4980531;28;20213;-81
2020/12/31 02:04:17;;;;;;;9.88;7.72;;;1.70;97.40;;;;;;4979007;28;20205;-82
2020/12/31 02:06:44;;;;;;;8.68;6.93;;;1.70;97.60;;;;;;4978333;28;20868;-82
2020/12/31 02:09:12;;;;;;;11.45;7.10;;;1.50;97.30;;;;;;4988957;28;20233;-81
2020/12/31 02:11:39;;;;;;;12.57;8.30;;;1.40;97.40;;;;;;4987063;28;20756;-82
2020/12/31 02:14:05;;;;;;;9.48;7.38;;;1.30;97.40;;;;;;4982374;28;20209;-83
2020/12/31 02:16:36;;;;;;;10.05;7.70;;;1.30;97.90;;;;;;4981676;28;20268;-83
2020/12/31 02:19:06;;;;;;;9.10;6.40;;;1.30;97.80;;;;;;4984032;28;20229;-81
2020/12/31 02:21:34;;;;;;;11.15;7.45;;;1.30;98.00;;;;;;4983572;28;20765;-82
2020/12/31 02:24:03;;;;;;;8.90;6.75;;;1.20;97.80;;;;;;4983383;28;20552;-83
2020/12/31 02:26:31;;;;;;;9.70;7.10;;;1.20;98.00;;;;;;4982136;28;20248;-82
2020/12/31 02:28:59;;;;;;;8.73;6.53;;;1.10;98.20;;;;;;4982458;28;20229;-82
2020/12/31 02:31:26;;;;;;;9.35;7.38;;;1.10;98.20;;;;;;4981769;28;20260;-82
2020/12/31 02:33:54;;;;;;;7.75;6.68;;;1.20;98.40;;;;;;4984687;28;20205;-80
2020/12/31 02:36:22;;;;;;;10.55;6.75;;;1.00;98.20;;;;;;4994796;28;20205;-80
2020/12/31 02:38:49;;;;;;;7.07;5.50;;;0.90;98.50;;;;;;4994999;28;20223;-80
2020/12/31 02:41:19;;;;;;;12.30;6.30;;;1.00;98.80;;;;;;4991191;28;20209;-80
2020/12/31 02:43:46;;;;;;;10.10;6.95;;;0.90;98.80;;;;;;4994237;28;20255;-82
2020/12/31 02:46:14;;;;;;;9.07;6.75;;;0.90;98.80;;;;;;4993534;28;20194;-80
2020/12/31 02:48:41;;;;;;;9.00;6.40;;;0.90;98.80;;;;;;4985679;28;20304;-81
2020/12/31 02:51:09;;;;;;;7.78;6.47;;;0.90;99.00;;;;;;4983547;28;20229;-81
2020/12/31 02:53:36;;;;;;;9.23;7.03;;;0.90;99.20;;;;;;4983743;28;20685;-80
2020/12/31 02:56:10;;;;;;;6.97;5.72;;;0.90;99.10;;;;;;4981487;28;20209;-80
2020/12/31 02:58:38;;;;;;;10.98;6.55;;;0.90;99.20;;;;;;4982550;28;20231;-80
2020/12/31 03:01:04;;;;;;;9.43;6.45;;;0.90;99.20;;;;;;4984825;28;20198;-81
2020/12/31 03:03:30;;;;;;;9.63;6.30;;;0.90;99.20;;;;;;4984447;28;20268;-81
2020/12/31 03:05:57;;;;;;;8.73;5.60;;;0.90;99.30;;;;;;4985146;28;20268;-80
2020/12/31 03:08:23;;;;;;;7.88;6.28;;;0.90;99.20;;;;;;4983506;28;20229;-81
2020/12/31 03:10:53;;;;;;;8.50;5.97;;;1.00;99.40;;;;;;4986130;28;20310;-81
2020/12/31 03:13:19;;;;;;;6.22;5.05;;;1.00;99.40;;;;;;4982475;28;20273;-82
2020/12/31 03:15:46;;;;;;;8.55;6.38;;;1.00;99.10;;;;;;4982323;28;20317;-80
2020/12/31 03:18:13;;;;;;;8.45;6.35;;;0.90;99.10;;;;;;4980720;28;20209;-82
2020/12/31 03:20:43;;;;;;;7.40;5.00;;;1.00;99.20;;;;;;4987456;28;20212;-83
2020/12/31 03:23:14;;;;;;;7.13;5.50;;;1.00;99.10;;;;;;4976267;29;20212;-82
2020/12/31 03:25:41;;;;;;;8.68;5.70;;;1.00;99.20;;;;;;4978137;28;20178;-80
2020/12/31 03:28:08;;;;;;;6.80;5.05;;;1.00;99.30;;;;;;4975553;28;20272;-80
2020/12/31 03:30:35;;;;;;;6.10;5.03;;;1.00;99.30;;;;;;4975817;29;20226;-80
2020/12/31 03:33:03;;;;;;;7.03;4.78;;;1.10;99.10;;;;;;4992677;28;20201;-81
2020/12/31 03:35:30;;;;;;;5.25;4.25;;;1.00;98.80;;;;;;4995389;28;20272;-81
2020/12/31 03:37:57;;;;;;;6.40;4.35;;;1.00;98.80;;;;;;4994330;28;20236;-80
2020/12/31 03:40:24;;;;;;;5.75;4.95;;;1.10;98.70;;;;;;4995760;28;20225;-82
2020/12/31 03:42:50;;;;;;;6.20;4.55;;;1.00;98.10;;;;;;4994083;28;20265;-82
2020/12/31 03:45:17;;;;;;;6.43;4.50;;;1.00;97.70;;;;;;4986996;28;20698;-82
2020/12/31 03:47:43;;;;;;;5.10;4.20;;;1.00;97.50;;;;;;4983534;28;20209;-83
2020/12/31 03:50:11;;;;;;;7.15;5.15;;;1.00;97.30;;;;;;4990120;28;20261;-83
2020/12/31 03:52:37;;;;;;;7.95;4.90;;;1.00;97.10;;;;;;4990753;28;20233;-84
2020/12/31 03:55:04;;;;;;;6.03;4.25;;;1.00;97.10;;;;;;4990883;28;20268;-85
2020/12/31 03:57:30;;;;;;;5.65;3.92;;;0.90;96.80;;;;;;4991740;28;20276;-81
2020/12/31 03:59:57;;;;;;;5.82;3.95;;;0.90;96.60;;;;;;4990654;28;20225;-81
2020/12/31 04:02:24;;;;;;;6.57;4.18;;;0.90;96.80;;;;;;4990399;28;20215;-81
2020/12/31 04:04:50;;;;;;;6.78;4.50;;;0.90;96.60;;;;;;4993297;28;20213;-81
2020/12/31 04:07:17;;;;;;;5.63;4.00;;;0.90;96.50;;;;;;4986761;28;20229;-80
2020/12/31 04:09:44;;;;;;;5.10;4.40;;;0.90;96.20;;;;;;4994265;28;20237;-81
2020/12/31 04:12:10;;;;;;;6.47;4.93;;;0.90;96.20;;;;;;4982318;28;20323;-84
2020/12/31 04:14:37;;;;;;;5.93;4.55;;;0.90;96.00;;;;;;4982103;28;20857;-81
2020/12/31 04:17:03;;;;;;;4.60;4.10;;;1.00;95.40;;;;;;4980502;28;20201;-81
2020/12/31 04:19:30;;;;;;;6.45;4.35;;;1.00;95.40;;;;;;4981577;28;20267;-82
2020/12/31 04:21:56;;;;;;;6.28;4.82;;;0.90;94.80;;;;;;4982230;28;20311;-81
2020/12/31 04:24:23;;;;;;;4.30;3.67;;;0.80;94.60;;;;;;4981921;28;20239;-81
2020/12/31 04:26:50;;;;;;;5.00;3.97;;;0.80;94.70;;;;;;4977842;28;20245;-82
2020/12/31 04:29:17;;;;;;;6.82;4.65;;;0.80;94.70;;;;;;4978958;28;20228;-82
2020/12/31 04:31:59;;;;;;;5.80;5.03;;;0.80;94.50;;;;;;4980965;28;20213;-81
2020/12/31 04:34:25;;;;;;;5.90;4.28;;;0.80;94.50;;;;;;4979624;28;20212;-82
2020/12/31 04:36:52;;;;;;;5.05;3.80;;;0.80;94.40;;;;;;4980607;28;20197;-85
2020/12/31 04:39:18;;;;;;;5.47;3.63;;;0.80;94.10;;;;;;4985155;28;20724;-82
2020/12/31 04:41:46;;;;;;;5.07;3.70;;;0.90;94.10;;;;;;4981551;28;20208;-83
2020/12/31 04:44:15;;;;;;;5.47;3.92;;;0.90;93.60;;;;;;4980956;28;20209;-83
2020/12/31 04:46:42;;;;;;;4.45;3.45;;;0.90;93.10;;;;;;4981836;28;20201;-83
2020/12/31 04:49:11;;;;;;;5.43;4.05;;;0.90;92.70;;;;;;4982132;28;20256;-82
2020/12/31 04:51:39;;;;;;;4.43;3.42;;;0.90;92.50;;;;;;4982844;28;20228;-81
2020/12/31 04:54:07;;;;;;;3.78;3.30;;;1.00;92.40;;;;;;4983839;28;20619;-81
2020/12/31 04:56:38;;;;;;;3.70;3.38;;;1.00;92.00;;;;;;4983721;28;20269;-80
2020/12/31 04:59:06;;;;;;;6.15;3.03;;;1.20;91.90;;;;;;4984172;28;20268;-80
2020/12/31 05:01:33;;;;;;;5.05;3.67;;;1.30;90.40;;;;;;4983095;28;20198;-81
2020/12/31 05:03:59;;;;;;;4.03;2.67;;;1.40;88.60;;;;;;4983221;28;20244;-81
2020/12/31 05:06:28;;;;;;;4.05;3.28;;;1.40;87.30;;;;;;4983229;28;20521;-81
2020/12/31 05:08:54;;;;;;;5.18;2.95;;;1.40;86.60;;;;;;4988607;28;20263;-80
2020/12/31 05:11:21;;;;;;;2.97;2.42;;;1.40;86.50;;;;;;4989225;28;20271;-81
2020/12/31 05:13:48;;;;;;;4.20;2.85;;;1.40;85.00;;;;;;4990942;28;20210;-81
2020/12/31 05:16:27;;;;;;;4.97;3.10;;;1.40;85.50;;;;;;4990974;28;20207;-80
2020/12/31 05:18:53;;;;;;;3.78;3.05;;;1.40;85.50;;;;;;4992586;28;20233;-81
2020/12/31 05:21:20;;;;;;;4.75;3.60;;;1.40;84.20;;;;;;4990825;28;20618;-80
2020/12/31 05:23:46;;;;;;;4.10;3.10;;;1.40;83.50;;;;;;4985102;28;20201;-80
2020/12/31 05:26:29;;;;;;;6.47;3.65;;;1.40;83.10;;;;;;4989717;28;20217;-80
2020/12/31 05:28:55;;;;;;;3.30;2.70;;;1.40;82.50;;;;;;4996113;28;20259;-80
2020/12/31 05:31:23;;;;;;;4.78;2.90;;;1.30;82.00;;;;;;4996155;28;20229;-79
2020/12/31 05:33:49;;;;;;;4.05;3.63;;;1.30;82.10;;;;;;4995612;28;20197;-80
2020/12/31 05:36:20;;;;;;;4.38;3.38;;;1.30;82.40;;;;;;4995746;28;20215;-80
2020/12/31 05:39:01;;;;;;;5.68;3.28;;;1.40;82.20;;;;;;4989539;28;20371;-81
2020/12/31 05:41:28;;;;;;;3.58;3.28;;;1.40;81.70;;;;;;4985335;28;20224;-80
2020/12/31 05:43:56;;;;;;;6.55;4.15;;;1.40;80.90;;;;;;4991822;28;20205;-80
2020/12/31 05:46:24;;;;;;;4.05;3.15;;;1.50;79.50;;;;;;4996355;28;20197;-80
2020/12/31 05:48:56;;;;;;;4.53;3.55;;;1.60;78.20;;;;;;4996702;28;20217;-82
2020/12/31 05:51:25;;;;;;;4.50;3.90;;;1.60;77.60;;;;;;4994169;28;20270;-79
2020/12/31 05:53:53;;;;;;;4.85;3.25;;;1.60;78.00;;;;;;4998396;28;20185;-80
2020/12/31 05:56:21;;;;;;;3.53;3.20;;;1.60;76.40;;;;;;4996946;28;20220;-81
2020/12/31 05:58:51;;;;;;;4.75;3.30;;;1.70;75.90;;;;;;4988308;28;20227;-82
2020/12/31 06:01:19;;;;;;;4.40;3.25;;;1.60;75.70;;;;;;4985496;28;20208;-81
2020/12/31 06:03:48;;;;;;;4.55;3.42;;;1.70;76.30;;;;;;4983545;28;20805;-82
2020/12/31 06:06:23;;;;;;;3.95;3.25;;;1.60;76.00;;;;;;4984548;28;20289;-81
2020/12/31 06:08:57;;;;;;;5.35;3.40;;;1.60;76.60;;;;;;4985485;28;20244;-81
2020/12/31 06:11:37;;;;;;;3.80;3.40;;;1.80;77.40;;;;;;4987250;28;20740;-82
2020/12/31 06:14:04;;;;;;;7.03;3.70;;;1.80;76.10;;;;;;4990815;28;20202;-81
2020/12/31 06:16:37;;;;;;;3.53;3.20;;;1.80;76.10;;;;;;4994239;28;20267;-81
2020/12/31 06:19:27;;;;;;;5.10;3.70;;;1.90;75.30;;;;;;4991068;28;20264;-82
2020/12/31 06:22:05;;;;;;;4.85;3.47;;;1.90;74.60;;;;;;4988084;28;20197;-82
2020/12/31 06:24:33;;;;;;;4.40;3.53;;;1.90;74.00;;;;;;4998864;28;20196;-80
2020/12/31 06:27:06;;;;;;;5.10;3.80;;;1.90;74.50;;;;;;4998623;28;20209;-80
2020/12/31 06:29:39;;;;;;;4.05;3.25;;;2.00;74.70;;;;;;4995595;28;20281;-81
2020/12/31 06:32:25;;;;;;;4.22;3.42;;;1.90;74.60;;;;;;4999272;28;20221;-80
2020/12/31 06:35:01;;;;;;;7.30;3.53;;;2.00;74.40;;;;;;4997646;28;20208;-80
2020/12/31 06:37:29;;;;;;;3.80;3.40;;;2.00;73.40;;;;;;4999355;28;20197;-81
2020/12/31 06:40:21;;;;;;;4.18;3.50;;;2.00;72.60;;;;;;4998623;28;20377;-80
2020/12/31 06:43:02;;;;;;;4.32;3.55;;;2.10;71.60;;;;;;4986501;28;20269;-81
2020/12/31 06:45:42;;;;;;;3.65;2.80;;;2.00;72.10;;;;;;4982085;28;20698;-81
2020/12/31 06:48:35;;;;;;;3.40;3.10;;;2.20;71.10;;;;;;4983079;28;20565;-80
2020/12/31 06:51:07;;;;;;;3.90;2.97;;;2.10;70.50;;;;;;4983272;28;20681;-80
2020/12/31 06:53:35;;;;;;;6.53;3.78;;;2.10;70.50;;;;;;4982592;28;20236;-80
2020/12/31 06:56:03;;;;;;;5.10;3.83;;;2.10;70.50;;;;;;4981947;28;20205;-81
2020/12/31 06:58:30;;;;;;;5.20;3.92;;;2.10;70.50;;;;;;4982541;28;20311;-81
2020/12/31 07:00:57;;;;;;;5.90;4.18;;;2.10;70.50;;;;;;4980380;28;20678;-80
2020/12/31 07:03:45;;;;;;;3.97;3.58;;;2.10;70.50;;;;;;4988417;28;20650;-81
2020/12/31 07:06:32;;;;;;;4.35;3.92;;;2.20;70.60;;;;;;4983559;28;20220;-81
2020/12/31 07:09:04;;;;;;;7.45;3.97;;;2.20;70.30;;;;;;4983576;28;20303;-80
2020/12/31 07:11:35;;;;;;;4.22;3.25;;;2.20;69.80;;;;;;4988204;28;20713;-80
2020/12/31 07:14:20;;;;;;;4.25;3.42;;;2.20;69.10;;;;;;4991418;28;20262;-81
2020/12/31 07:16:55;;;;;;;3.47;3.10;;;2.20;69.00;;;;;;4986998;28;20224;-80
2020/12/31 07:19:21;;;;;;;4.72;3.45;;;2.20;69.40;;;;;;4995359;28;20227;-79
2020/12/31 07:21:51;;;;;;;3.83;3.40;;;2.20;69.30;;;;;;4996832;28;20224;-80
2020/12/31 07:24:22;;;;;;;3.65;3.35;;;2.20;69.10;;;;;;4996627;28;20308;-79
2020/12/31 07:26:50;;;;;;;4.05;3.28;;;2.20;69.40;;;;;;4995384;28;20217;-82
2020/12/31 07:29:30;;;;;;;4.53;3.35;;;2.20;69.40;;;;;;4986525;28;20229;-82
2020/12/31 07:31:57;;;;;;;3.65;3.35;;;2.30;68.70;;;;;;4966210;29;20253;-82
2020/12/31 07:34:25;;;;;;;4.78;3.90;;;2.30;67.90;;;;;;4962091;29;20666;-82
2020/12/31 07:37:04;;;;;;;4.25;3.72;;;2.30;68.60;;;;;;4979564;28;20208;-81
2020/12/31 07:39:31;;;;;;;4.05;3.33;;;2.40;68.90;;;;;;4982326;28;20257;-80
2020/12/31 07:42:16;;;;;;;4.20;3.80;;;2.40;68.30;;;;;;4983619;28;20233;-80
2020/12/31 07:44:52;;;;;;;4.85;3.70;;;2.40;68.90;;;;;;4983990;28;20220;-82
2020/12/31 07:47:20;;;;;;;6.53;4.43;;;2.50;68.90;;;;;;4982179;28;20209;-81
2020/12/31 07:49:47;;;;;;;5.88;4.60;;;2.60;68.70;;;;;;4983002;28;20316;-81
2020/12/31 07:52:15;;;;;;;5.28;4.05;;;2.70;68.40;;;;;;4990032;28;20225;-81
2020/12/31 07:54:41;;;;;;;4.60;4.03;;;2.70;67.90;;;;;;4995932;28;20206;-79
2020/12/31 07:57:11;;;;;;;5.53;4.00;;;2.80;67.90;;;;;;4986767;28;20303;-83
2020/12/31 07:59:44;;;;;;;5.30;4.50;;;2.80;66.80;;;;;;4965269;28;20230;-80
2020/12/31 08:02:14;;;;;;;5.13;3.90;;;2.90;66.30;;;;;;4971738;29;20208;-82
2020/12/31 08:04:41;;;;;;;3.80;3.40;;;2.80;65.70;;;;;;4971044;28;20201;-82
2020/12/31 08:07:15;;;;;;;4.35;3.40;;;2.80;65.70;;;;;;4969583;28;20249;-81
2020/12/31 08:09:43;;;;;;;5.40;4.35;;;2.90;65.40;;;;;;4973313;28;20233;-82
2020/12/31 08:12:11;;;;;;;4.20;3.20;;;2.90;64.50;;;;;;4983451;28;20299;-82
2020/12/31 08:14:41;;;;;;;3.88;3.45;;;3.00;64.60;;;;;;4986166;28;20227;-82
2020/12/31 08:17:08;;;;;;;7.18;3.90;;;3.00;64.20;;;;;;4987329;28;20220;-81
2020/12/31 08:19:35;;;;;;;5.15;3.55;;;3.00;64.10;;;;;;4988603;28;20260;-80
2020/12/31 08:22:13;;;;;;;5.43;3.05;;;2.90;64.00;;;;;;4995635;28;20198;-80
2020/12/31 08:24:48;;;;;;;2.88;2.50;;;3.00;63.60;;;;;;4987875;28;20217;-81
2020/12/31 08:27:18;;;;;;;2.78;2.20;;;3.00;62.60;;;;;;4995206;28;20209;-81
2020/12/31 08:29:45;;;;;;;2.30;2.10;;;3.10;62.30;;;;;;4996446;28;20280;-81
2020/12/31 08:32:22;;;;;;;2.78;2.35;;;3.20;62.80;;;;;;4995041;28;20229;-80
2020/12/31 08:34:54;;;;;;;3.05;2.50;;;3.20;62.80;;;;;;4983921;28;20197;-79
2020/12/31 08:37:22;;;;;;;2.85;2.08;;;3.20;62.80;;;;;;4982434;28;20244;-80
2020/12/31 08:39:51;;;;;;;2.72;2.40;;;3.10;63.70;;;;;;4984084;28;20280;-80
2020/12/31 08:42:20;;;;;;;4.93;4.43;;;3.00;64.60;;;;;;4990605;28;20201;-79
2020/12/31 08:44:53;;;;;;;2.30;2.10;;;3.00;65.50;;;;;;4989780;28;20195;-80
2020/12/31 08:47:20;;;;;;;3.80;2.63;;;3.00;66.60;;;;;;4979882;28;20230;-80
2020/12/31 08:49:52;;;;;;;2.55;2.17;;;3.00;67.00;;;;;;4986208;28;20225;-80
2020/12/31 08:52:18;;;;;;;3.88;2.70;;;3.00;68.60;;;;;;4976686;28;20221;-79
2020/12/31 08:54:45;;;;;;;3.70;2.70;;;2.90;70.40;;;;;;4990467;28;20224;-79
2020/12/31 08:57:16;;;;;;;4.47;3.35;;;2.90;71.20;;;;;;4981850;28;20209;-80
2020/12/31 08:59:43;;;;;;;3.60;3.30;;;2.80;72.60;;;;;;4986896;28;20249;-79
2020/12/31 09:02:12;;;;;;;4.30;3.70;;;2.80;73.90;;;;;;4990270;28;20189;-79
2020/12/31 09:04:38;;;;;;;4.25;2.97;;;2.90;75.40;;;;;;4985884;28;20298;-79
2020/12/31 09:07:10;;;;;;;4.65;3.80;;;2.90;75.50;;;;;;4988539;28;20212;-80
2020/12/31 09:09:37;;;;;;;3.42;3.08;;;2.90;76.00;;;;;;4978690;28;20598;-80
2020/12/31 09:12:05;;;;;;;3.38;3.00;;;2.80;76.40;;;;;;4981833;28;20260;-80
2020/12/31 09:14:33;;;;;;;6.07;3.42;;;2.80;77.30;;;;;;4981187;28;20235;-80
2020/12/31 09:17:01;;;;;;;3.95;3.55;;;2.80;78.50;;;;;;4978858;28;20682;-82
2020/12/31 09:19:28;;;;;;;4.88;3.85;;;2.70;79.00;;;;;;4979879;28;20240;-80
2020/12/31 09:21:54;;;;;;;3.38;3.00;;;2.70;79.50;;;;;;4983595;28;20212;-80
2020/12/31 09:24:22;;;;;;;4.10;3.30;;;2.70;80.50;;;;;;4982459;28;20271;-81
2020/12/31 09:26:53;;;;;;;5.50;3.75;;;2.80;81.50;;;;;;4982849;28;20209;-81
2020/12/31 09:29:19;;;;;;;4.05;3.05;;;2.80;82.40;;;;;;4983316;28;20245;-80
2020/12/31 09:31:47;;;;;;;4.40;3.13;;;2.70;83.40;;;;;;4983065;28;20368;-81
2020/12/31 09:34:13;;;;;;;5.05;3.80;;;2.80;83.70;;;;;;4977722;28;20303;-81
2020/12/31 09:36:40;;;;;;;7.15;4.70;;;2.90;83.70;;;;;;4974515;28;20221;-80
2020/12/31 09:39:06;;;;;;;5.40;4.30;;;3.00;83.80;;;;;;4983136;28;20249;-80
2020/12/31 09:41:33;;;;;;;4.80;3.90;;;3.00;83.90;;;;;;4983221;28;20232;-80
2020/12/31 09:43:59;;;;;;;3.80;3.40;;;3.10;83.00;;;;;;4982189;28;20233;-79
2020/12/31 09:46:26;;;;;;;5.75;4.65;;;3.10;82.30;;;;;;4984437;28;20224;-80
2020/12/31 09:48:53;;;;;;;5.53;4.63;;;3.20;81.80;;;;;;4991875;28;20232;-79
2020/12/31 09:51:20;;;;;;;5.55;4.07;;;3.00;81.20;;;;;;4992365;28;20225;-80
2020/12/31 09:53:47;;;;;;;6.35;4.05;;;2.80;82.80;;;;;;4984359;28;20212;-80
2020/12/31 09:56:13;;;;;;;7.07;4.28;;;2.90;83.80;;;;;;4981640;28;20278;-81
2020/12/31 09:58:40;;;;;;;3.90;3.22;;;2.80;83.70;;;;;;4982481;28;20252;-80
2020/12/31 10:01:06;;;;;;;4.43;3.80;;;2.50;86.80;;;;;;4981863;28;20213;-80
2020/12/31 10:03:33;;;;;;;6.85;5.05;;;2.70;87.70;;;;;;4981918;28;20389;-81
2020/12/31 10:06:00;;;;;;;7.88;5.47;;;2.80;87.80;;;;;;4984092;28;20684;-79
2020/12/31 10:08:27;;;;;;;5.25;4.18;;;2.60;87.60;;;;;;4984169;28;20237;-81
2020/12/31 10:10:53;;;;;;;5.72;3.78;;;2.70;88.80;;;;;;4985111;28;20305;-79
2020/12/31 10:13:20;;;;;;;5.03;3.55;;;2.80;88.90;;;;;;4990876;28;20210;-79
2020/12/31 10:15:47;;;;;;;4.40;3.40;;;2.90;87.80;;;;;;4983305;28;20379;-81
2020/12/31 10:18:13;;;;;;;3.97;3.58;;;3.00;88.00;;;;;;4987549;28;20269;-78
2020/12/31 10:20:40;;;;;;;4.75;3.80;;;3.00;87.10;;;;;;4985969;28;20236;-80
2020/12/31 10:23:07;;;;;;;6.13;3.90;;;3.00;85.70;;;;;;4978815;28;20328;-80
2020/12/31 10:25:34;;;;;;;4.43;3.65;;;3.20;85.90;;;;;;4986015;28;20591;-81
2020/12/31 10:28:00;;;;;;;5.03;4.05;;;3.30;84.90;;;;;;4988913;28;20202;-83
2020/12/31 10:30:26;;;;;;;4.10;3.70;;;3.40;84.10;;;;;;4983954;28;20225;-79
2020/12/31 10:32:53;;;;;;;7.10;3.97;;;3.40;82.40;;;;;;4982593;28;20316;-81
2020/12/31 10:35:19;;;;;;;7.07;4.43;;;3.30;81.30;;;;;;4982114;28;20224;-80
2020/12/31 10:37:46;;;;;;;6.55;4.90;;;3.20;81.90;;;;;;4984577;28;20206;-79
2020/12/31 10:40:14;;;;;;;8.95;5.47;;;3.00;83.20;;;;;;4977826;28;20244;-78
2020/12/31 10:42:41;;;;;;;6.13;5.10;;;3.30;84.40;;;;;;4978236;28;20201;-81
2020/12/31 10:45:08;;;;;;;7.95;4.78;;;3.40;85.30;;;;;;4981561;28;20557;-79
2020/12/31 10:47:34;;;;;;;9.45;4.97;;;3.30;84.70;;;;;;4977496;28;20209;-79
2020/12/31 10:50:01;;;;;;;8.45;5.18;;;3.50;84.60;;;;;;4978366;28;20258;-77
2020/12/31 10:52:27;;;;;;;7.20;5.80;;;3.30;84.20;;;;;;4978999;28;20314;-77
2020/12/31 10:54:53;;;;;;;6.13;5.15;;;3.40;86.30;;;;;;4976887;28;20212;-77
2020/12/31 10:57:21;;;;;;;7.03;4.60;;;3.00;85.60;;;;;;4976791;28;20209;-79
2020/12/31 10:59:47;;;;;;;10.68;5.50;;;3.30;88.20;;;;;;4975147;28;20283;-79
2020/12/31 11:02:13;;;;;;;6.85;5.05;;;3.50;87.30;;;;;;4975969;28;20205;-79
2020/12/31 11:04:40;;;;;;;5.57;4.43;;;3.50;86.20;;;;;;4976016;28;20268;-79
2020/12/31 11:07:06;;;;;;;9.90;6.40;;;3.70;85.40;;;;;;4976166;28;20225;-80
2020/12/31 11:09:32;;;;;;;4.93;4.40;;;3.60;81.60;;;;;;4975888;28;20313;-79
2020/12/31 11:11:59;;;;;;;7.05;5.00;;;3.60;82.80;;;;;;4976388;28;20221;-80
2020/12/31 11:14:26;;;;;;;6.03;4.63;;;3.50;81.60;;;;;;4979682;28;20269;-80
2020/12/31 11:16:54;;;;;;;7.30;5.30;;;3.70;81.60;;;;;;4981458;28;20849;-79
2020/12/31 11:19:21;;;;;;;7.50;5.65;;;3.60;80.20;;;;;;4976999;28;20734;-79
2020/12/31 11:21:50;;;;;;;6.22;4.93;;;3.70;80.30;;;;;;4980979;28;20205;-79
2020/12/31 11:24:16;;;;;;;6.60;5.25;;;3.50;78.80;;;;;;4983266;28;20320;-79
2020/12/31 11:26:42;;;;;;;8.75;6.35;;;3.40;80.00;;;;;;4985897;28;20216;-80
2020/12/31 11:29:09;;;;;;;6.70;6.10;;;3.40;80.10;;;;;;4982218;28;20229;-79
2020/12/31 11:31:36;;;;;;;10.38;6.53;;;3.40;80.80;;;;;;4981285;28;20230;-80
2020/12/31 11:34:03;;;;;;;7.35;6.10;;;3.50;81.30;;;;;;4983876;28;20202;-80
2020/12/31 11:36:30;;;;;;;9.50;6.43;;;3.60;81.80;;;;;;4990934;28;20209;-80
2020/12/31 11:38:57;;;;;;;7.40;6.22;;;3.60;81.50;;;;;;4992559;28;20245;-78
2020/12/31 11:41:24;;;;;;;11.38;7.93;;;3.60;82.80;;;;;;4990036;28;20240;-80
2020/12/31 11:43:50;;;;;;;10.00;6.50;;;3.70;82.50;;;;;;4993663;28;20242;-80
2020/12/31 11:46:17;;;;;;;8.80;6.95;;;3.90;82.80;;;;;;4992882;28;20218;-79
2020/12/31 11:48:44;;;;;;;17.75;12.30;;;3.90;80.50;;;;;;4992075;28;20344;-79
2020/12/31 11:51:12;;;;;;;13.35;6.65;;;3.80;81.70;;;;;;4991515;28;20225;-80
2020/12/31 11:53:38;;;;;;;9.00;6.55;;;3.90;81.80;;;;;;4993151;28;20217;-80
2020/12/31 11:56:06;;;;;;;7.68;5.72;;;3.70;81.70;;;;;;4996575;28;20194;-80
2020/12/31 11:58:32;;;;;;;9.05;5.80;;;3.80;82.50;;;;;;4996604;28;20233;-80
2020/12/31 12:00:59;;;;;;;7.65;5.95;;;3.90;82.50;;;;;;4995457;28;20256;-80
2020/12/31 12:03:27;;;;;;;7.35;4.95;;;3.80;82.00;;;;;;4996519;28;20198;-80
2020/12/31 12:05:54;;;;;;;8.32;5.50;;;3.90;81.90;;;;;;4992498;28;20213;-80
2020/12/31 12:08:21;;;;;;;9.65;6.05;;;4.00;81.60;;;;;;4976384;28;20233;-81
2020/12/31 12:10:48;;;;;;;8.70;5.97;;;3.90;81.60;;;;;;4974551;29;20261;-81
2020/12/31 12:13:15;;;;;;;8.60;6.35;;;4.00;82.90;;;;;;4976109;29;20221;-81
2020/12/31 12:15:42;;;;;;;9.98;6.65;;;4.30;83.20;;;;;;4978159;28;20235;-81
2020/12/31 12:18:11;;;;;;;9.60;6.43;;;4.40;82.60;;;;;;4977260;28;20279;-81
2020/12/31 12:20:37;;;;;;;6.70;5.15;;;4.50;81.00;;;;;;4968805;29;20230;-81
2020/12/31 12:23:05;;;;;;;5.72;4.40;;;4.40;80.90;;;;;;4968171;29;20210;-81
2020/12/31 12:25:31;;;;;;;7.82;4.80;;;4.60;80.00;;;;;;4967868;29;20300;-79
2020/12/31 12:27:58;;;;;;;7.28;5.40;;;4.50;78.00;;;;;;4976205;28;20210;-80
2020/12/31 12:30:24;;;;;;;7.05;4.80;;;4.60;79.10;;;;;;4986071;28;20226;-80
2020/12/31 12:32:50;;;;;;;6.97;4.60;;;4.70;78.00;;;;;;4985575;28;20226;-80
2020/12/31 12:35:17;;;;;;;4.50;3.97;;;4.30;76.60;;;;;;4986389;28;20226;-80
2020/12/31 12:37:43;;;;;;;5.13;4.28;;;4.10;80.00;;;;;;4986141;28;20197;-80
2020/12/31 12:40:11;;;;;;;10.05;4.40;;;4.00;81.50;;;;;;4986058;28;20336;-80
2020/12/31 12:42:38;;;;;;;5.57;3.50;;;4.30;82.80;;;;;;4988593;28;20214;-81
2020/12/31 12:45:06;;;;;;;5.80;3.92;;;4.30;80.80;;;;;;4986320;28;20216;-80
2020/12/31 12:47:34;;;;;;;5.65;3.22;;;4.50;81.10;;;;;;4988657;28;20676;-80
2020/12/31 12:50:00;;;;;;;3.97;3.55;;;4.50;81.00;;;;;;4986021;28;20233;-80
2020/12/31 12:52:27;;;;;;;5.05;3.60;;;4.70;79.20;;;;;;4986433;28;20230;-80
2020/12/31 12:54:53;;;;;;;5.38;4.30;;;4.50;78.70;;;;;;4987181;28;20257;-81
2020/12/31 12:57:21;;;;;;;5.22;3.80;;;4.60;78.90;;;;;;4985971;28;20201;-82
2020/12/31 12:59:48;;;;;;;5.70;4.50;;;4.80;79.90;;;;;;4985877;28;20241;-81
2020/12/31 13:02:14;;;;;;;5.05;3.95;;;4.90;78.60;;;;;;4985346;28;20234;-80